Time;durP1;ratioP1;P1;durP2;ratioP2;P2;SDS_P1;SDS_P2;PMS_P1;PMS_P2;Temp;Humidity;BMP_temperature;BMP_pressure;BME280_temperature;BME280_humidity;BME280_pressure;Samples;Min_cycle;Max_cycle;Signal;HPM_P1;HPM_P2
2023/05/05 00:01:07;;;;;;;6.00;4.27;;;8.10;99.90;10.10;97252.00;;;;5080444;28;20277;-68
2023/05/05 00:03:56;;;;;;;5.50;4.50;;;8.20;99.90;9.70;97242.00;;;;5082038;28;20234;-69
2023/05/05 00:06:45;;;;;;;5.10;4.33;;;8.00;99.90;9.50;97244.00;;;;5093356;28;20216;-69
2023/05/05 00:09:33;;;;;;;6.00;4.73;;;8.30;99.90;8.80;97227.00;;;;5094761;28;20546;-67
2023/05/05 00:12:22;;;;;;;5.47;4.67;;;7.50;99.90;8.40;97230.00;;;;5099414;28;20199;-71
2023/05/05 00:15:11;;;;;;;6.23;4.80;;;7.50;99.90;8.40;97226.00;;;;5095973;28;20199;-71
2023/05/05 00:18:01;;;;;;;5.67;4.00;;;7.50;99.90;8.80;97229.00;;;;5095655;28;20309;-67
2023/05/05 00:20:50;;;;;;;4.00;3.53;;;7.30;99.90;9.50;97244.00;;;;5089196;28;20202;-68
2023/05/05 00:23:39;;;;;;;5.60;5.00;;;7.40;99.90;9.50;97231.00;;;;5094727;28;20266;-68
2023/05/05 00:26:27;;;;;;;5.73;4.30;;;7.40;99.90;9.30;97227.00;;;;5094325;28;20229;-69
2023/05/05 00:29:16;;;;;;;6.97;4.70;;;7.50;99.90;9.20;97217.00;;;;5098809;28;20907;-68
2023/05/05 00:32:05;;;;;;;5.72;5.13;;;7.60;99.90;9.20;97223.00;;;;5101646;28;20835;-68
2023/05/05 00:34:55;;;;;;;10.13;5.40;;;7.50;99.90;9.10;97220.00;;;;5090594;28;20229;-69
2023/05/05 00:37:44;;;;;;;6.43;4.97;;;7.50;99.90;9.10;97219.00;;;;5098550;28;20585;-68
2023/05/05 00:40:33;;;;;;;6.80;4.90;;;7.30;99.90;8.80;97207.00;;;;5103669;28;20203;-69
2023/05/05 00:43:21;;;;;;;6.90;4.30;;;7.60;99.90;8.30;97211.00;;;;5102130;28;20222;-70
2023/05/05 00:46:24;;;;;;;7.90;3.90;;;7.10;99.90;8.30;97203.00;;;;5093180;28;20284;-70
2023/05/05 00:49:13;;;;;;;5.50;4.67;;;6.90;99.90;8.50;97208.00;;;;5096872;28;20207;-69
2023/05/05 00:52:05;;;;;;;4.27;3.87;;;7.00;99.90;8.80;97204.00;;;;5091031;28;20198;-68
2023/05/05 00:54:54;;;;;;;4.43;4.03;;;7.10;99.90;8.90;97201.00;;;;5097264;28;20206;-69
2023/05/05 00:57:43;;;;;;;4.97;4.47;;;7.10;99.90;8.90;97197.00;;;;5098026;28;20309;-68
2023/05/05 01:00:33;;;;;;;4.93;4.40;;;7.20;99.90;8.40;97193.00;;;;5083704;28;20203;-69
2023/05/05 01:03:21;;;;;;;8.07;4.77;;;7.00;99.90;8.20;97184.00;;;;5085672;28;20230;-66
2023/05/05 01:06:28;;;;;;;5.07;4.50;;;7.10;99.90;8.30;97191.00;;;;5085210;28;20603;-69
2023/05/05 01:09:30;;;;;;;4.93;4.47;;;6.80;99.90;8.40;97186.00;;;;5094497;28;20678;-66
2023/05/05 01:12:30;;;;;;;4.80;4.20;;;6.60;99.90;9.00;97187.00;;;;5084659;28;20292;-68
2023/05/05 01:15:27;;;;;;;4.90;4.40;;;7.00;99.90;9.10;97183.00;;;;5086328;28;20199;-69
2023/05/05 01:18:31;;;;;;;7.53;4.80;;;7.10;99.90;9.00;97183.00;;;;5086757;28;20227;-68
2023/05/05 01:21:26;;;;;;;6.10;4.47;;;7.00;99.90;9.10;97172.00;;;;5080997;28;20210;-68
2023/05/05 01:24:46;;;;;;;5.40;4.20;;;7.10;99.90;8.90;97178.00;;;;5087966;28;20295;-69
2023/05/05 01:27:55;;;;;;;5.00;4.50;;;7.20;99.90;8.70;97173.00;;;;5085673;28;20214;-69
2023/05/05 01:31:10;;;;;;;8.60;4.37;;;7.10;99.90;8.30;97164.00;;;;5083774;28;20574;-70
2023/05/05 01:34:04;;;;;;;4.77;4.30;;;6.70;99.90;8.40;97172.00;;;;5081016;28;20264;-69
2023/05/05 01:37:05;;;;;;;5.00;4.50;;;7.00;99.90;8.50;97171.00;;;;5084016;28;20272;-68
2023/05/05 01:39:59;;;;;;;5.27;4.73;;;6.90;99.90;8.60;97172.00;;;;5092631;28;20198;-68
2023/05/05 01:42:49;;;;;;;7.03;4.97;;;6.80;99.90;8.30;97170.00;;;;5086645;28;20262;-69
2023/05/05 01:45:42;;;;;;;5.27;4.53;;;6.90;99.90;8.60;97165.00;;;;5081610;28;20694;-69
2023/05/05 01:48:32;;;;;;;6.07;4.80;;;6.50;99.90;8.60;97165.00;;;;5084469;28;20230;-69
2023/05/05 01:51:24;;;;;;;6.87;4.70;;;7.20;99.90;8.80;97167.00;;;;5080786;28;20230;-69
2023/05/05 01:54:15;;;;;;;4.70;4.20;;;6.80;99.90;8.70;97150.00;;;;5084573;28;20310;-69
2023/05/05 01:57:06;;;;;;;5.07;4.40;;;7.10;99.90;8.50;97150.00;;;;5083460;28;20226;-69
2023/05/05 01:59:56;;;;;;;5.13;3.73;;;6.90;99.90;8.50;97141.00;;;;5079293;28;20211;-69
2023/05/05 02:02:47;;;;;;;4.33;3.87;;;6.90;99.90;8.50;97142.00;;;;5083664;28;20248;-70
2023/05/05 02:05:39;;;;;;;4.70;4.27;;;6.80;99.90;8.20;97140.00;;;;5087390;28;20222;-68
2023/05/05 02:08:31;;;;;;;7.80;4.63;;;7.00;99.90;8.10;97137.00;;;;5080136;28;20204;-69
2023/05/05 02:11:21;;;;;;;8.53;4.60;;;6.70;99.90;8.10;97138.00;;;;5085623;28;20287;-69
2023/05/05 02:14:11;;;;;;;5.53;4.10;;;6.70;99.90;7.60;97133.00;;;;5083960;28;20219;-70
2023/05/05 02:17:02;;;;;;;4.70;4.20;;;6.40;99.90;8.10;97136.00;;;;5084542;28;20227;-70
2023/05/05 02:19:52;;;;;;;5.73;5.10;;;6.30;99.90;8.10;97136.00;;;;5081693;28;20196;-70
2023/05/05 02:22:41;;;;;;;4.77;4.27;;;6.60;99.90;7.70;97130.00;;;;5081380;28;20191;-70
2023/05/05 02:25:38;;;;;;;10.67;5.67;;;6.30;99.90;7.90;97139.00;;;;5081786;28;20195;-70
2023/05/05 02:28:40;;;;;;;5.30;4.77;;;6.30;99.90;8.10;97138.00;;;;5087253;28;20195;-70
2023/05/05 02:31:31;;;;;;;5.73;4.43;;;6.50;99.90;7.70;97148.00;;;;5091481;28;20240;-70
2023/05/05 02:34:24;;;;;;;7.23;5.50;;;6.30;99.90;7.70;97140.00;;;;5083959;28;20272;-69
2023/05/05 02:37:20;;;;;;;5.43;4.27;;;6.20;99.90;8.00;97141.00;;;;5091397;28;20288;-69
2023/05/05 02:40:10;;;;;;;5.13;4.63;;;6.50;99.90;8.30;97145.00;;;;5089588;28;20568;-69
2023/05/05 02:43:06;;;;;;;6.50;4.73;;;6.30;99.90;8.20;97144.00;;;;5088479;28;20207;-70
2023/05/05 02:45:55;;;;;;;7.70;4.77;;;6.30;99.90;8.30;97144.00;;;;5084461;28;20204;-69
2023/05/05 02:48:48;;;;;;;5.73;5.23;;;6.30;99.90;8.20;97147.00;;;;5089919;28;20575;-69
2023/05/05 02:51:36;;;;;;;6.83;4.77;;;6.50;99.90;8.10;97137.00;;;;5094872;28;20195;-69
2023/05/05 02:54:26;;;;;;;7.77;5.50;;;6.50;99.90;8.10;97140.00;;;;5085760;28;20747;-68
2023/05/05 02:57:19;;;;;;;4.93;4.30;;;6.60;99.90;7.50;97126.00;;;;5088191;28;20704;-68
2023/05/05 03:00:19;;;;;;;7.23;5.07;;;6.40;99.90;7.40;97138.00;;;;5083673;28;20238;-69
2023/05/05 03:03:15;;;;;;;7.97;4.73;;;6.00;99.90;7.50;97124.00;;;;5087389;28;20261;-70
2023/05/05 03:06:11;;;;;;;4.90;4.40;;;5.90;99.90;7.80;97122.00;;;;5088553;28;20629;-69
2023/05/05 03:09:08;;;;;;;7.60;5.37;;;6.10;99.90;8.10;97132.00;;;;5086128;28;20199;-69
2023/05/05 03:12:02;;;;;;;6.17;4.37;;;6.40;99.90;8.20;97128.00;;;;5085832;28;20222;-69
2023/05/05 03:14:54;;;;;;;5.83;5.23;;;6.20;99.90;8.10;97125.00;;;;5084369;28;20611;-70
2023/05/05 03:17:46;;;;;;;7.63;5.07;;;6.30;99.90;7.70;97124.00;;;;5085234;28;20247;-68
2023/05/05 03:20:35;;;;;;;6.03;5.43;;;6.40;99.90;7.30;97125.00;;;;5085993;28;20203;-69
2023/05/05 03:23:23;;;;;;;5.43;4.43;;;6.30;99.90;7.40;97124.00;;;;5088854;28;20241;-69
2023/05/05 03:26:13;;;;;;;6.97;4.60;;;6.30;99.90;7.60;97128.00;;;;5089038;28;20733;-70
2023/05/05 03:29:04;;;;;;;6.43;4.33;;;5.60;99.90;7.90;97121.00;;;;5089758;28;20202;-70
2023/05/05 03:31:53;;;;;;;8.53;6.20;;;6.30;99.90;8.00;97124.00;;;;5089327;28;20214;-70
2023/05/05 03:34:43;;;;;;;8.03;5.00;;;5.90;99.90;7.80;97120.00;;;;5084534;28;20763;-70
2023/05/05 03:37:31;;;;;;;6.53;4.20;;;5.90;99.90;7.70;97125.00;;;;5092880;28;20215;-70
2023/05/05 03:40:20;;;;;;;6.13;4.77;;;5.70;99.90;7.50;97122.00;;;;5086781;28;20252;-70
2023/05/05 03:43:12;;;;;;;6.77;4.70;;;6.10;99.90;7.60;97111.00;;;;5087701;28;20210;-68
2023/05/05 03:46:01;;;;;;;5.70;5.10;;;5.60;99.90;7.50;97117.00;;;;5084998;28;20369;-68
2023/05/05 03:48:50;;;;;;;6.33;5.17;;;6.10;99.90;7.40;97109.00;;;;5083811;28;20195;-68
2023/05/05 03:51:40;;;;;;;6.47;5.37;;;6.10;99.90;7.20;97112.00;;;;5093132;28;20804;-69
2023/05/05 03:54:30;;;;;;;7.13;6.43;;;6.00;99.90;6.80;97124.00;;;;5083252;28;20511;-70
2023/05/05 03:57:18;;;;;;;7.43;5.93;;;5.70;99.90;6.40;97112.00;;;;5087756;28;20457;-71
2023/05/05 04:00:10;;;;;;;8.27;5.77;;;5.70;99.90;6.90;97119.00;;;;5082473;28;20729;-69
2023/05/05 04:02:59;;;;;;;5.67;5.10;;;5.20;99.90;7.00;97121.00;;;;5083737;28;20215;-69
2023/05/05 04:05:48;;;;;;;5.70;5.17;;;5.50;99.90;6.80;97111.00;;;;5089025;28;20199;-70
2023/05/05 04:08:38;;;;;;;6.00;5.07;;;5.60;99.90;6.80;97115.00;;;;5081737;28;20195;-70
2023/05/05 04:11:26;;;;;;;6.13;5.17;;;5.50;99.90;7.40;97106.00;;;;5087552;28;20199;-69
2023/05/05 04:14:15;;;;;;;6.97;6.20;;;5.80;99.90;7.50;97114.00;;;;5086835;28;20195;-69
2023/05/05 04:17:05;;;;;;;21.57;5.90;;;5.80;99.90;7.30;97111.00;;;;5091664;28;20227;-69
2023/05/05 04:19:53;;;;;;;5.27;4.67;;;5.80;99.90;6.70;97108.00;;;;5085000;28;20192;-70
2023/05/05 04:22:43;;;;;;;7.97;4.43;;;5.50;99.90;6.30;97112.00;;;;5082323;28;20207;-70
2023/05/05 04:25:33;;;;;;;5.30;4.57;;;5.30;99.90;6.40;97111.00;;;;5085588;28;20231;-71
2023/05/05 04:28:22;;;;;;;5.93;5.33;;;5.20;99.90;6.60;97111.00;;;;5088216;28;20224;-71
2023/05/05 04:31:10;;;;;;;9.43;5.83;;;5.30;99.90;7.20;97119.00;;;;5081055;28;20557;-68
2023/05/05 04:33:59;;;;;;;10.67;5.67;;;5.40;99.90;7.20;97119.00;;;;5085972;28;20219;-70
2023/05/05 04:36:47;;;;;;;5.87;5.20;;;5.30;99.90;7.30;97117.00;;;;5088696;28;20769;-70
2023/05/05 04:39:36;;;;;;;5.17;4.67;;;5.40;99.90;7.10;97114.00;;;;5078340;28;20223;-71
2023/05/05 04:42:26;;;;;;;8.47;5.10;;;5.40;99.90;7.40;97118.00;;;;5078669;28;20589;-67
2023/05/05 04:45:15;;;;;;;6.43;5.23;;;5.70;99.90;7.60;97111.00;;;;5084003;28;20259;-70
2023/05/05 04:48:04;;;;;;;6.47;5.80;;;6.00;99.90;7.90;97127.00;;;;5081866;28;20196;-70
2023/05/05 04:50:53;;;;;;;12.23;5.77;;;6.00;99.90;8.20;97123.00;;;;5083964;28;20583;-70
2023/05/05 04:53:42;;;;;;;5.63;5.13;;;5.90;99.90;8.30;97125.00;;;;5078447;28;20280;-69
2023/05/05 04:56:31;;;;;;;6.90;6.07;;;6.10;99.90;8.10;97137.00;;;;5082203;28;20227;-69
2023/05/05 04:59:21;;;;;;;8.30;5.83;;;6.20;99.90;7.80;97124.00;;;;5083186;28;20207;-70
2023/05/05 05:02:10;;;;;;;6.17;5.57;;;6.30;99.90;7.70;97122.00;;;;5087058;28;20883;-71
2023/05/05 05:04:59;;;;;;;10.33;5.90;;;6.60;99.90;8.30;97121.00;;;;5093835;28;20669;-71
2023/05/05 05:07:48;;;;;;;5.93;5.40;;;6.40;99.90;8.10;97132.00;;;;5081037;28;20313;-72
2023/05/05 05:10:36;;;;;;;5.53;4.80;;;6.60;99.90;8.60;97131.00;;;;5080487;28;20596;-69
2023/05/05 05:13:25;;;;;;;6.53;5.93;;;6.90;99.90;8.30;97126.00;;;;5080037;28;20203;-72
2023/05/05 05:16:15;;;;;;;6.10;5.47;;;6.90;99.90;8.60;97135.00;;;;5087864;28;20255;-72
2023/05/05 05:19:04;;;;;;;7.87;5.00;;;7.00;99.90;8.80;97122.00;;;;5088022;28;20820;-68
2023/05/05 05:21:53;;;;;;;6.87;5.87;;;7.20;99.90;9.20;97123.00;;;;5083461;28;20210;-69
2023/05/05 05:24:41;;;;;;;6.13;5.40;;;7.10;99.90;9.40;97126.00;;;;5082070;28;20188;-70
2023/05/05 05:27:30;;;;;;;11.07;6.50;;;7.40;99.90;9.60;97126.00;;;;5092910;28;20233;-70
2023/05/05 05:30:19;;;;;;;7.33;5.43;;;7.60;99.90;9.90;97129.00;;;;5087009;28;20282;-69
2023/05/05 05:33:09;;;;;;;7.97;6.37;;;7.70;99.90;10.40;97123.00;;;;5091500;28;20269;-68
2023/05/05 05:35:58;;;;;;;12.30;6.33;;;8.10;99.90;10.40;97127.00;;;;5085391;28;20239;-70
2023/05/05 05:38:46;;;;;;;6.50;5.50;;;8.20;99.90;10.80;97127.00;;;;5090132;28;20195;-70
2023/05/05 05:41:35;;;;;;;9.97;5.83;;;8.40;99.90;11.10;97133.00;;;;5085535;28;20203;-70
2023/05/05 05:44:24;;;;;;;6.50;5.57;;;8.70;99.90;11.30;97135.00;;;;5092381;28;20237;-70
2023/05/05 05:47:13;;;;;;;8.53;5.97;;;8.90;99.90;11.30;97124.00;;;;5080984;28;20310;-70
2023/05/05 05:50:04;;;;;;;6.87;6.00;;;9.10;99.90;11.50;97128.00;;;;5081869;28;20192;-71
2023/05/05 05:52:52;;;;;;;11.20;5.47;;;9.40;99.90;11.80;97125.00;;;;5084377;28;20247;-71
2023/05/05 05:55:41;;;;;;;9.50;6.27;;;9.40;99.90;11.90;97133.00;;;;5080224;28;20740;-68
2023/05/05 05:58:30;;;;;;;7.83;5.33;;;9.80;99.90;12.40;97134.00;;;;5086024;28;20211;-70
2023/05/05 06:01:19;;;;;;;7.67;5.50;;;9.90;99.90;12.60;97135.00;;;;5091746;28;20576;-70
2023/05/05 06:04:08;;;;;;;5.67;5.07;;;10.10;99.90;12.80;97137.00;;;;5080122;28;20196;-69
2023/05/05 06:06:58;;;;;;;14.17;5.97;;;10.30;99.90;13.10;97136.00;;;;5082325;28;20231;-71
2023/05/05 06:09:47;;;;;;;10.07;6.43;;;10.50;99.90;13.60;97132.00;;;;5080413;28;20283;-70
2023/05/05 06:12:35;;;;;;;7.33;4.90;;;10.80;99.90;13.90;97128.00;;;;5081835;28;20203;-70
2023/05/05 06:15:24;;;;;;;8.33;5.00;;;11.10;99.90;13.70;97133.00;;;;5086145;28;20195;-70
2023/05/05 06:18:13;;;;;;;8.93;5.60;;;11.10;99.90;13.90;97127.00;;;;5087126;28;20203;-70
2023/05/05 06:21:02;;;;;;;7.50;5.77;;;11.40;99.90;14.00;97131.00;;;;5082917;28;20196;-70
2023/05/05 06:23:52;;;;;;;7.57;4.90;;;11.40;99.90;14.00;97125.00;;;;5085994;28;20699;-70
2023/05/05 06:26:40;;;;;;;6.43;5.57;;;11.70;99.90;14.10;97121.00;;;;5088097;28;20698;-69
2023/05/05 06:29:29;;;;;;;11.27;5.63;;;11.90;99.90;14.00;97118.00;;;;5078827;28;20191;-73
2023/05/05 06:32:19;;;;;;;6.50;5.20;;;11.90;99.90;14.70;97122.00;;;;5086082;28;20215;-70
2023/05/05 06:35:09;;;;;;;11.40;4.93;;;12.30;99.90;14.50;97121.00;;;;5087715;28;20602;-70
2023/05/05 06:37:58;;;;;;;9.33;5.60;;;12.40;99.90;14.60;97118.00;;;;5083706;28;20275;-70
2023/05/05 06:40:49;;;;;;;7.27;5.20;;;12.20;99.90;14.70;97123.00;;;;5079948;28;20210;-70
2023/05/05 06:43:38;;;;;;;7.57;5.13;;;12.50;99.90;15.00;97121.00;;;;5081497;28;20365;-70
2023/05/05 06:46:27;;;;;;;8.20;5.67;;;12.60;99.90;15.40;97126.00;;;;5081446;28;20211;-70
2023/05/05 06:49:15;;;;;;;5.90;4.80;;;12.90;99.90;15.60;97115.00;;;;5077668;28;20195;-70
2023/05/05 06:52:06;;;;;;;9.13;5.47;;;13.10;99.90;15.40;97109.00;;;;5073810;28;20237;-71
2023/05/05 06:54:55;;;;;;;7.07;5.20;;;13.00;99.90;15.70;97102.00;;;;5077134;28;20218;-69
2023/05/05 06:57:45;;;;;;;9.63;5.17;;;13.30;99.90;15.30;97103.00;;;;5086430;28;20308;-72
2023/05/05 07:00:34;;;;;;;11.07;5.30;;;13.40;99.90;16.00;97100.00;;;;5082726;28;20263;-69
2023/05/05 07:03:23;;;;;;;9.67;6.07;;;;;16.40;97107.00;;;;5084617;28;20206;-69
2023/05/05 07:06:12;;;;;;;11.57;6.10;;;;;16.00;97104.00;;;;5084888;28;20257;-70
2023/05/05 07:09:02;;;;;;;6.57;4.73;;;;;16.10;97114.00;;;;5083234;28;20245;-71
2023/05/05 07:11:51;;;;;;;6.67;4.47;;;;;16.00;97111.00;;;;5082012;28;20204;-72
2023/05/05 07:14:41;;;;;;;6.77;4.60;;;;;16.20;97105.00;;;;5083223;28;20203;-72
2023/05/05 07:17:30;;;;;;;9.47;4.63;;;;;16.50;97110.00;;;;5092867;28;20373;-70
2023/05/05 07:20:19;;;;;;;9.13;5.03;;;;;17.30;97111.00;;;;5087714;28;20202;-70
2023/05/05 07:23:08;;;;;;;6.43;4.63;;;;;17.00;97103.00;;;;5092907;28;20249;-70
2023/05/05 07:25:57;;;;;;;5.97;4.60;;;;;16.90;97098.00;;;;5087475;28;20720;-68
2023/05/05 07:28:46;;;;;;;5.53;4.47;;;;;17.30;97103.00;;;;5082461;28;20268;-70
2023/05/05 07:31:36;;;;;;;5.83;4.87;;;;;17.30;97101.00;;;;5089503;28;20231;-71
2023/05/05 07:34:26;;;;;;;8.00;4.60;;;;;17.80;97090.00;;;;5084725;28;20675;-69
2023/05/05 07:37:15;;;;;;;5.30;4.80;;;;;17.60;97083.00;;;;5095382;28;20317;-70
2023/05/05 07:40:05;;;;;;;4.93;3.80;;;;;17.90;97088.00;;;;5086032;28;20623;-70
2023/05/05 07:42:54;;;;;;;4.60;4.00;;;;;18.80;97086.00;;;;5089340;28;20286;-71
2023/05/05 07:45:43;;;;;;;4.43;4.03;;;;;19.20;97084.00;;;;5082577;28;20212;-71
2023/05/05 07:48:33;;;;;;;4.57;3.63;;;;;19.20;97088.00;;;;5088070;28;20192;-69
2023/05/05 07:51:22;;;;;;;7.07;4.50;;;;;19.40;97087.00;;;;5087649;28;20710;-72
2023/05/05 07:54:12;;;;;;;8.10;3.90;;;;;19.80;97080.00;;;;5087105;28;20239;-72
2023/05/05 07:57:01;;;;;;;5.20;4.07;;;;;20.10;97089.00;;;;5086535;28;20254;-72
2023/05/05 07:59:50;;;;;;;4.20;3.80;;;17.20;99.90;20.40;97080.00;;;;5078650;28;20218;-71
2023/05/05 08:02:38;;;;;;;9.20;4.33;;;17.40;99.90;20.50;97079.00;;;;5084308;28;20191;-71
2023/05/05 08:05:28;;;;;;;5.80;3.77;;;17.60;99.90;20.70;97085.00;;;;5087448;28;20192;-70
2023/05/05 08:08:17;;;;;;;5.10;3.70;;;17.80;99.90;20.80;97076.00;;;;5094272;28;20240;-71
2023/05/05 08:11:06;;;;;;;7.13;4.00;;;18.00;99.90;21.00;97083.00;;;;5089568;28;20207;-70
2023/05/05 08:13:55;;;;;;;6.13;3.60;;;18.10;99.90;21.20;97089.00;;;;5081516;28;20207;-70
2023/05/05 08:16:44;;;;;;;4.67;3.60;;;18.30;99.90;21.00;97071.00;;;;5082839;28;20222;-70
2023/05/05 08:19:32;;;;;;;5.50;4.37;;;18.40;99.90;21.40;97074.00;;;;5089887;28;20230;-70
2023/05/05 08:22:23;;;;;;;5.75;3.15;;;18.60;99.90;21.60;97067.00;;;;5078365;28;20251;-69
2023/05/05 08:25:12;;;;;;;3.50;3.20;;;18.70;99.90;21.70;97070.00;;;;5081736;28;20208;-70
2023/05/05 08:28:01;;;;;;;4.55;3.40;;;18.80;99.00;21.70;97070.00;;;;5087603;28;20260;-70
2023/05/05 08:30:50;;;;;;;5.13;3.70;;;19.00;99.30;21.90;97073.00;;;;5089566;28;20611;-69
2023/05/05 08:33:39;;;;;;;4.97;4.17;;;19.10;97.90;22.40;97073.00;;;;5085057;28;20245;-69
2023/05/05 08:36:27;;;;;;;5.90;3.07;;;19.30;97.80;22.50;97074.00;;;;5090568;28;20222;-69
2023/05/05 08:39:17;;;;;;;4.27;3.13;;;19.50;96.90;22.20;97068.00;;;;5087549;28;20196;-69
2023/05/05 08:42:06;;;;;;;3.83;3.47;;;19.60;95.60;22.30;97060.00;;;;5085314;28;20270;-70
2023/05/05 08:44:55;;;;;;;3.47;3.17;;;19.70;95.80;22.90;97067.00;;;;5094259;28;20235;-70
2023/05/05 08:47:45;;;;;;;3.57;2.77;;;19.80;95.10;22.90;97061.00;;;;5082146;28;20260;-70
2023/05/05 08:50:33;;;;;;;4.07;3.20;;;20.00;94.40;22.90;97059.00;;;;5085908;28;20671;-70
2023/05/05 08:53:38;;;;;;;4.00;3.60;;;20.10;93.70;23.50;97059.00;;;;5088931;28;20664;-70
2023/05/05 08:56:35;;;;;;;3.50;3.13;;;20.40;93.50;23.10;97057.00;;;;5088520;28;20219;-70
2023/05/05 08:59:24;;;;;;;3.03;2.80;;;20.50;91.90;23.40;97053.00;;;;5082394;28;20252;-70
2023/05/05 09:02:14;;;;;;;3.50;2.87;;;20.60;91.20;22.70;97056.00;;;;5094124;28;20199;-70
2023/05/05 09:05:04;;;;;;;6.33;3.27;;;20.70;91.30;22.80;97050.00;;;;5078911;28;20231;-70
2023/05/05 09:07:53;;;;;;;4.63;2.77;;;20.70;91.40;23.10;97053.00;;;;5089977;28;20691;-70
2023/05/05 09:10:42;;;;;;;4.03;3.13;;;20.70;90.30;23.00;97045.00;;;;5083323;28;20210;-73
2023/05/05 09:13:32;;;;;;;3.70;2.93;;;20.80;88.50;22.70;97045.00;;;;5080959;28;20251;-70
2023/05/05 09:16:21;;;;;;;4.50;3.20;;;20.70;86.80;23.60;97037.00;;;;5086866;28;20222;-71
2023/05/05 09:19:10;;;;;;;4.93;2.90;;;20.80;88.20;24.20;97034.00;;;;5088066;28;20808;-70
2023/05/05 09:21:59;;;;;;;3.80;3.40;;;21.10;89.00;24.60;97043.00;;;;5082873;28;20195;-71
2023/05/05 09:24:55;;;;;;;2.93;2.63;;;21.30;89.00;25.00;97038.00;;;;5081564;28;20192;-70
2023/05/05 09:27:46;;;;;;;7.00;3.40;;;21.60;89.40;25.40;97037.00;;;;5090064;28;20308;-70
2023/05/05 09:30:36;;;;;;;6.10;3.03;;;22.00;89.40;25.60;97038.00;;;;5077734;28;20191;-70
2023/05/05 09:33:30;;;;;;;4.93;3.17;;;22.20;86.40;25.60;97035.00;;;;5083459;28;20198;-70
2023/05/05 09:36:19;;;;;;;2.93;2.73;;;22.50;85.40;25.40;97026.00;;;;5085706;28;20210;-70
2023/05/05 09:39:09;;;;;;;5.67;2.80;;;22.60;84.40;26.00;97025.00;;;;5085574;28;20709;-70
2023/05/05 09:41:57;;;;;;;2.70;2.20;;;22.80;83.60;25.80;97026.00;;;;5090995;28;20199;-70
2023/05/05 09:44:46;;;;;;;3.13;2.83;;;22.90;80.00;26.10;97034.00;;;;5083217;28;20211;-71
2023/05/05 09:47:37;;;;;;;3.47;3.17;;;23.00;83.80;26.40;97018.00;;;;5083382;28;20223;-71
2023/05/05 09:50:28;;;;;;;3.20;3.00;;;23.20;81.60;26.40;97021.00;;;;5085152;28;20554;-71
2023/05/05 09:53:17;;;;;;;5.97;3.13;;;23.30;79.70;26.80;97017.00;;;;5087796;28;20223;-71
2023/05/05 09:56:08;;;;;;;3.10;2.80;;;23.50;79.30;27.00;97023.00;;;;5081071;28;20319;-72
2023/05/05 09:59:08;;;;;;;5.67;3.00;;;23.70;78.50;27.20;97014.00;;;;5083384;28;20774;-71
2023/05/05 10:02:11;;;;;;;7.67;2.90;;;23.90;77.20;27.50;97022.00;;;;5085523;28;20888;-70
2023/05/05 10:05:11;;;;;;;3.53;2.30;;;24.10;75.80;27.50;97012.00;;;;5090280;28;20198;-71
2023/05/05 10:08:13;;;;;;;5.93;2.47;;;24.30;73.10;27.60;97015.00;;;;5087007;28;20707;-70
2023/05/05 10:11:05;;;;;;;6.40;2.80;;;24.40;73.80;27.20;97012.00;;;;5083159;28;20678;-71
2023/05/05 10:13:54;;;;;;;3.53;2.70;;;24.50;72.60;27.20;97021.00;;;;5078154;28;20211;-71
2023/05/05 10:16:49;;;;;;;4.63;2.90;;;24.50;73.30;27.20;97017.00;;;;5082443;28;20280;-70
2023/05/05 10:19:39;;;;;;;3.47;2.70;;;24.60;71.40;27.80;97019.00;;;;5080120;28;20250;-70
2023/05/05 10:22:34;;;;;;;5.50;3.40;;;24.70;74.20;27.10;97011.00;;;;5080472;28;20317;-71
2023/05/05 10:25:30;;;;;;;9.03;3.03;;;24.60;73.10;27.00;97011.00;;;;5083186;28;20261;-71
2023/05/05 10:28:32;;;;;;;4.37;2.90;;;24.70;70.90;27.30;97001.00;;;;5085022;28;20219;-71
2023/05/05 10:31:24;;;;;;;5.60;3.57;;;24.70;74.20;26.20;96983.00;;;;5083720;28;20204;-72
2023/05/05 10:34:28;;;;;;;5.53;3.37;;;24.60;68.10;27.40;96999.00;;;;5091094;28;20195;-69
2023/05/05 10:37:17;;;;;;;5.47;3.17;;;24.60;71.00;27.20;96986.00;;;;5079226;28;20210;-69
2023/05/05 10:40:09;;;;;;;3.77;3.20;;;24.70;70.60;27.60;96980.00;;;;5079741;28;20219;-70
2023/05/05 10:42:59;;;;;;;6.07;3.07;;;24.70;71.90;27.00;96981.00;;;;5081017;28;20199;-71
2023/05/05 10:45:48;;;;;;;4.13;2.93;;;24.80;70.00;28.10;96977.00;;;;5081710;28;20207;-71
2023/05/05 10:48:45;;;;;;;4.83;3.60;;;25.00;71.90;27.70;96975.00;;;;5084096;28;20219;-70
2023/05/05 10:51:46;;;;;;;4.97;3.33;;;25.20;72.60;27.70;96961.00;;;;5084311;28;20198;-69
2023/05/05 10:54:42;;;;;;;6.00;3.03;;;25.40;69.90;28.20;96959.00;;;;5088708;28;20196;-69
2023/05/05 10:57:36;;;;;;;3.83;3.10;;;25.50;69.60;26.80;96954.00;;;;5089244;28;20237;-73
2023/05/05 11:00:50;;;;;;;3.97;3.43;;;25.40;69.20;26.70;96950.00;;;;5083905;28;20197;-70
2023/05/05 11:03:39;;;;;;;3.70;3.07;;;25.20;68.10;27.80;96957.00;;;;5085012;28;20195;-69
2023/05/05 11:06:28;;;;;;;7.60;4.00;;;25.10;68.50;28.10;96958.00;;;;5089426;28;20215;-67
2023/05/05 11:09:29;;;;;;;5.03;3.17;;;25.30;69.90;27.80;96958.00;;;;5083415;28;20374;-71
2023/05/05 11:12:18;;;;;;;4.53;3.27;;;25.40;67.40;28.60;96954.00;;;;5087517;28;20349;-70
2023/05/05 11:15:40;;;;;;;5.37;3.80;;;25.60;68.10;28.00;96961.00;;;;5086993;28;20990;-69
2023/05/05 11:18:35;;;;;;;6.37;2.87;;;25.80;67.00;29.00;96943.00;;;;5089519;28;20197;-70
2023/05/05 11:21:24;;;;;;;9.30;3.67;;;25.90;67.70;29.90;96949.00;;;;5085188;28;20196;-68
2023/05/05 11:24:28;;;;;;;5.33;3.83;;;26.20;67.70;30.10;96946.00;;;;5087724;28;20290;-67
2023/05/05 11:27:17;;;;;;;6.37;4.70;;;26.50;69.20;30.40;96941.00;;;;5087062;28;20222;-69
2023/05/05 11:30:08;;;;;;;8.13;4.13;;;26.70;67.50;30.00;96934.00;;;;5088534;28;20788;-71
2023/05/05 11:33:27;;;;;;;3.47;3.10;;;26.90;65.60;30.20;96938.00;;;;5090536;28;20694;-69
2023/05/05 11:36:18;;;;;;;5.03;3.60;;;27.10;65.10;30.30;96940.00;;;;5083028;28;20615;-70
2023/05/05 11:39:23;;;;;;;3.50;3.10;;;27.30;66.20;29.80;96926.00;;;;5087710;28;20206;-70
2023/05/05 11:42:24;;;;;;;4.93;2.97;;;27.10;62.50;30.70;96931.00;;;;5084749;28;20214;-70
2023/05/05 11:45:22;;;;;;;6.27;4.67;;;27.40;64.70;29.50;96927.00;;;;5086754;28;20217;-69
2023/05/05 11:48:26;;;;;;;6.53;3.67;;;27.30;61.70;27.30;96930.00;;;;5083691;28;20219;-72
2023/05/05 11:51:16;;;;;;;5.17;2.83;;;27.20;59.70;28.40;96934.00;;;;5087902;28;20200;-67
2023/05/05 11:54:05;;;;;;;5.03;3.50;;;26.60;61.80;28.20;96912.00;;;;5090118;28;20201;-68
2023/05/05 11:56:55;;;;;;;3.53;3.10;;;26.40;60.70;27.70;96924.00;;;;5084134;28;20221;-68
2023/05/05 11:59:57;;;;;;;6.10;3.20;;;26.30;60.30;28.50;96918.00;;;;5083626;28;20221;-69
2023/05/05 12:02:46;;;;;;;5.97;3.43;;;26.40;61.50;28.90;96923.00;;;;5082877;28;20237;-68
2023/05/05 12:05:36;;;;;;;4.53;3.17;;;26.30;60.30;28.70;96922.00;;;;5088102;28;20194;-68
2023/05/05 12:08:25;;;;;;;3.80;2.80;;;26.40;60.90;29.40;96922.00;;;;5082703;28;20207;-67
2023/05/05 12:11:13;;;;;;;3.33;3.03;;;26.60;59.60;28.80;96907.00;;;;5089121;28;20210;-68
2023/05/05 12:14:10;;;;;;;5.23;3.60;;;26.60;59.50;30.60;96915.00;;;;5088846;28;20230;-68
2023/05/05 12:17:00;;;;;;;4.97;3.73;;;26.90;59.20;31.90;96914.00;;;;5082675;28;20275;-68
2023/05/05 12:19:51;;;;;;;5.10;3.00;;;27.50;60.60;29.50;96902.00;;;;5084729;28;20201;-69
2023/05/05 12:22:41;;;;;;;7.50;2.93;;;27.70;58.30;31.90;96907.00;;;;5089853;28;20660;-68
2023/05/05 12:25:39;;;;;;;4.87;3.93;;;28.00;60.00;30.50;96902.00;;;;5080681;28;20188;-69
2023/05/05 12:28:45;;;;;;;3.63;3.15;;;28.30;56.90;32.10;96903.00;;;;5087245;28;20195;-68
2023/05/05 12:31:37;;;;;;;3.72;3.00;;;28.50;58.30;32.50;96901.00;;;;5086033;28;20205;-67
2023/05/05 12:34:26;;;;;;;4.35;3.60;;;28.70;58.40;28.40;96898.00;;;;5081755;28;20201;-66
2023/05/05 12:37:17;;;;;;;5.43;3.03;;;28.50;55.00;31.00;96909.00;;;;5082299;28;20276;-69
2023/05/05 12:40:44;;;;;;;2.75;2.55;;;28.50;57.00;29.00;96893.00;;;;5085940;28;20227;-70
2023/05/05 12:43:34;;;;;;;4.63;2.55;;;28.20;57.40;29.90;96904.00;;;;5082694;28;20204;-70
2023/05/05 12:46:23;;;;;;;3.17;2.92;;;27.90;58.30;30.60;96898.00;;;;5085080;28;20658;-68
2023/05/05 12:49:12;;;;;;;5.20;2.95;;;28.00;57.50;28.80;96884.00;;;;5086670;28;20223;-67
2023/05/05 12:52:01;;;;;;;4.22;3.80;;;27.80;54.90;28.30;96886.00;;;;5084630;28;20197;-64
2023/05/05 12:54:54;;;;;;;3.70;2.80;;;;;29.30;96887.00;;;;5086959;28;20272;-68
2023/05/05 12:58:00;;;;;;;3.20;2.90;;;;;30.00;96888.00;;;;5081684;28;20230;-69